sensor_id;sensor_type;location;lat;lon;timestamp;pressure;altitude;pressure_sealevel;temperature;humidity
49949;BME280;35840;45.982;8.890;2023-12-20T00:02:16;98452.97;;;1.92;86.49
49949;BME280;35840;45.982;8.890;2023-12-20T00:04:43;98440.91;;;2.00;86.44
49949;BME280;35840;45.982;8.890;2023-12-20T00:07:10;98443.25;;;2.09;86.02
49949;BME280;35840;45.982;8.890;2023-12-20T00:09:37;98437.34;;;2.09;85.88
49949;BME280;35840;45.982;8.890;2023-12-20T00:12:04;98435.19;;;1.93;86.48
49949;BME280;35840;45.982;8.890;2023-12-20T00:14:30;98430.72;;;2.03;86.05
49949;BME280;35840;45.982;8.890;2023-12-20T00:16:57;98437.19;;;2.15;85.76
49949;BME280;35840;45.982;8.890;2023-12-20T00:19:24;98440.59;;;2.14;85.43
49949;BME280;35840;45.982;8.890;2023-12-20T00:21:51;98432.69;;;1.92;85.35
49949;BME280;35840;45.982;8.890;2023-12-20T00:24:18;98434.66;;;1.80;86.04
49949;BME280;35840;45.982;8.890;2023-12-20T00:26:45;98426.91;;;1.85;86.56
49949;BME280;35840;45.982;8.890;2023-12-20T00:29:11;98437.19;;;1.80;87.31
49949;BME280;35840;45.982;8.890;2023-12-20T00:31:38;98435.66;;;1.73;88.15
49949;BME280;35840;45.982;8.890;2023-12-20T00:34:05;98427.75;;;1.85;88.48
49949;BME280;35840;45.982;8.890;2023-12-20T00:36:32;98424.88;;;1.99;87.93
49949;BME280;35840;45.982;8.890;2023-12-20T00:38:59;98432.41;;;2.02;87.67
49949;BME280;35840;45.982;8.890;2023-12-20T00:41:25;98422.44;;;1.96;87.46
49949;BME280;35840;45.982;8.890;2023-12-20T00:43:52;98391.59;;;1.79;87.03
49949;BME280;35840;45.982;8.890;2023-12-20T00:46:19;98401.13;;;2.03;87.19
49949;BME280;35840;45.982;8.890;2023-12-20T00:48:46;98401.84;;;2.09;86.82
49949;BME280;35840;45.982;8.890;2023-12-20T00:51:14;98390.94;;;2.05;87.04
49949;BME280;35840;45.982;8.890;2023-12-20T00:53:40;98390.06;;;2.06;86.55
49949;BME280;35840;45.982;8.890;2023-12-20T00:56:07;98378.09;;;2.11;86.38
49949;BME280;35840;45.982;8.890;2023-12-20T00:58:34;98371.25;;;2.15;86.13
49949;BME280;35840;45.982;8.890;2023-12-20T01:01:01;98365.44;;;2.10;86.34
49949;BME280;35840;45.982;8.890;2023-12-20T01:03:29;98333.88;;;1.88;87.12
49949;BME280;35840;45.982;8.890;2023-12-20T01:05:56;98359.69;;;2.04;86.61
49949;BME280;35840;45.982;8.890;2023-12-20T01:08:22;98349.41;;;2.09;86.71
49949;BME280;35840;45.982;8.890;2023-12-20T01:10:49;98350.34;;;1.72;88.85
49949;BME280;35840;45.982;8.890;2023-12-20T01:13:16;98352.81;;;1.75;88.89
49949;BME280;35840;45.982;8.890;2023-12-20T01:15:43;98350.56;;;1.97;87.97
49949;BME280;35840;45.982;8.890;2023-12-20T01:18:09;98349.38;;;2.11;88.15
49949;BME280;35840;45.982;8.890;2023-12-20T01:20:36;98341.53;;;2.20;87.75
49949;BME280;35840;45.982;8.890;2023-12-20T01:23:03;98335.50;;;2.24;87.53
49949;BME280;35840;45.982;8.890;2023-12-20T01:25:30;98327.13;;;2.20;86.92
49949;BME280;35840;45.982;8.890;2023-12-20T01:27:57;98329.81;;;2.16;87.59
49949;BME280;35840;45.982;8.890;2023-12-20T01:30:24;98322.09;;;2.19;87.67
49949;BME280;35840;45.982;8.890;2023-12-20T01:32:51;98327.72;;;1.99;88.93
49949;BME280;35840;45.982;8.890;2023-12-20T01:35:18;98325.31;;;1.93;89.36
49949;BME280;35840;45.982;8.890;2023-12-20T01:37:45;98318.06;;;2.12;88.91
49949;BME280;35840;45.982;8.890;2023-12-20T01:40:12;98299.66;;;2.05;88.98
49949;BME280;35840;45.982;8.890;2023-12-20T01:42:39;98314.28;;;2.27;88.99
49949;BME280;35840;45.982;8.890;2023-12-20T01:45:07;98316.75;;;2.30;88.80
49949;BME280;35840;45.982;8.890;2023-12-20T01:47:34;98308.97;;;2.36;88.76
49949;BME280;35840;45.982;8.890;2023-12-20T01:50:01;98312.28;;;2.38;88.30
49949;BME280;35840;45.982;8.890;2023-12-20T01:52:30;98309.25;;;2.25;88.97
49949;BME280;35840;45.982;8.890;2023-12-20T01:55:01;98301.72;;;1.91;91.23
49949;BME280;35840;45.982;8.890;2023-12-20T01:57:30;98298.38;;;1.88;91.53
49949;BME280;35840;45.982;8.890;2023-12-20T01:59:58;98300.34;;;1.79;92.63
49949;BME280;35840;45.982;8.890;2023-12-20T02:02:26;98304.38;;;1.86;93.05
49949;BME280;35840;45.982;8.890;2023-12-20T02:04:54;98288.69;;;2.04;92.91
49949;BME280;35840;45.982;8.890;2023-12-20T02:07:22;98287.09;;;2.00;91.99
49949;BME280;35840;45.982;8.890;2023-12-20T02:09:50;98276.69;;;2.10;92.07
49949;BME280;35840;45.982;8.890;2023-12-20T02:12:17;98277.88;;;1.98;92.68
49949;BME280;35840;45.982;8.890;2023-12-20T02:14:43;98276.00;;;2.04;92.47
49949;BME280;35840;45.982;8.890;2023-12-20T02:17:10;98265.69;;;2.11;92.80
49949;BME280;35840;45.982;8.890;2023-12-20T02:19:37;98268.63;;;2.27;91.98
49949;BME280;35840;45.982;8.890;2023-12-20T02:24:34;98258.78;;;2.46;89.80
49949;BME280;35840;45.982;8.890;2023-12-20T02:27:00;98260.31;;;2.51;90.15
49949;BME280;35840;45.982;8.890;2023-12-20T02:29:27;98248.34;;;2.55;89.54
49949;BME280;35840;45.982;8.890;2023-12-20T02:31:54;98244.19;;;2.54;89.29
49949;BME280;35840;45.982;8.890;2023-12-20T02:34:21;98252.38;;;2.62;89.22
49949;BME280;35840;45.982;8.890;2023-12-20T02:36:48;98243.22;;;2.58;88.87
49949;BME280;35840;45.982;8.890;2023-12-20T02:39:14;98240.19;;;2.45;89.68
49949;BME280;35840;45.982;8.890;2023-12-20T02:41:41;98223.47;;;2.38;90.26
49949;BME280;35840;45.982;8.890;2023-12-20T02:44:08;98214.81;;;2.45;90.87
49949;BME280;35840;45.982;8.890;2023-12-20T02:46:35;98212.38;;;2.42;90.31
49949;BME280;35840;45.982;8.890;2023-12-20T02:49:02;98225.53;;;2.25;92.91
49949;BME280;35840;45.982;8.890;2023-12-20T02:51:29;98219.47;;;2.31;92.50
49949;BME280;35840;45.982;8.890;2023-12-20T02:53:55;98233.56;;;2.41;92.65
49949;BME280;35840;45.982;8.890;2023-12-20T02:56:22;98215.81;;;2.39;92.15
49949;BME280;35840;45.982;8.890;2023-12-20T02:58:49;98207.34;;;2.40;92.59
49949;BME280;35840;45.982;8.890;2023-12-20T03:01:16;98208.41;;;2.03;94.87
49949;BME280;35840;45.982;8.890;2023-12-20T03:03:43;98204.88;;;2.09;94.79
49949;BME280;35840;45.982;8.890;2023-12-20T03:06:09;98204.44;;;2.24;94.09
49949;BME280;35840;45.982;8.890;2023-12-20T03:08:36;98206.34;;;1.86;94.97
49949;BME280;35840;45.982;8.890;2023-12-20T03:11:03;98213.34;;;2.08;94.68
49949;BME280;35840;45.982;8.890;2023-12-20T03:13:30;98212.00;;;2.26;94.10
49949;BME280;35840;45.982;8.890;2023-12-20T03:15:57;98209.16;;;2.37;94.03
49949;BME280;35840;45.982;8.890;2023-12-20T03:18:23;98195.41;;;2.44;92.83
49949;BME280;35840;45.982;8.890;2023-12-20T03:20:50;98188.47;;;2.49;92.72
49949;BME280;35840;45.982;8.890;2023-12-20T03:23:18;98191.06;;;2.19;94.30
49949;BME280;35840;45.982;8.890;2023-12-20T03:25:45;98191.44;;;2.05;95.43
49949;BME280;35840;45.982;8.890;2023-12-20T03:28:14;98174.69;;;2.00;96.77
49949;BME280;35840;45.982;8.890;2023-12-20T03:30:42;98170.66;;;2.22;95.53
49949;BME280;35840;45.982;8.890;2023-12-20T03:33:08;98173.66;;;2.37;95.56
49949;BME280;35840;45.982;8.890;2023-12-20T03:35:35;98165.63;;;2.49;94.26
49949;BME280;35840;45.982;8.890;2023-12-20T03:38:03;98161.34;;;2.51;93.34
49949;BME280;35840;45.982;8.890;2023-12-20T03:40:30;98174.25;;;2.15;95.94
49949;BME280;35840;45.982;8.890;2023-12-20T03:42:56;98175.28;;;2.10;95.83
49949;BME280;35840;45.982;8.890;2023-12-20T03:45:23;98170.84;;;2.16;95.64
49949;BME280;35840;45.982;8.890;2023-12-20T03:47:51;98160.25;;;2.32;95.54
49949;BME280;35840;45.982;8.890;2023-12-20T03:50:25;98149.19;;;2.34;94.42
49949;BME280;35840;45.982;8.890;2023-12-20T03:52:52;98158.53;;;2.04;96.02
49949;BME280;35840;45.982;8.890;2023-12-20T03:55:19;98165.81;;;1.86;96.78
49949;BME280;35840;45.982;8.890;2023-12-20T03:57:46;98167.28;;;1.94;97.30
49949;BME280;35840;45.982;8.890;2023-12-20T04:00:13;98157.47;;;2.11;96.64
49949;BME280;35840;45.982;8.890;2023-12-20T04:02:41;98158.06;;;2.19;96.22
49949;BME280;35840;45.982;8.890;2023-12-20T04:05:09;98139.03;;;2.06;96.57
49949;BME280;35840;45.982;8.890;2023-12-20T04:07:36;98142.91;;;2.18;95.72
49949;BME280;35840;45.982;8.890;2023-12-20T04:10:03;98129.63;;;2.10;96.08
49949;BME280;35840;45.982;8.890;2023-12-20T04:12:31;98145.22;;;2.26;95.42
49949;BME280;35840;45.982;8.890;2023-12-20T04:14:57;98143.25;;;2.35;95.11
49949;BME280;35840;45.982;8.890;2023-12-20T04:17:24;98141.53;;;2.36;94.34
49949;BME280;35840;45.982;8.890;2023-12-20T04:19:51;98137.13;;;2.14;95.86
49949;BME280;35840;45.982;8.890;2023-12-20T04:22:18;98143.75;;;2.18;95.61
49949;BME280;35840;45.982;8.890;2023-12-20T04:24:46;98137.69;;;2.24;95.39
49949;BME280;35840;45.982;8.890;2023-12-20T04:27:13;98125.41;;;2.38;94.81
49949;BME280;35840;45.982;8.890;2023-12-20T04:29:39;98133.66;;;2.44;93.22
49949;BME280;35840;45.982;8.890;2023-12-20T04:32:06;98127.09;;;2.38;94.57
49949;BME280;35840;45.982;8.890;2023-12-20T04:34:33;98125.50;;;2.35;94.44
49949;BME280;35840;45.982;8.890;2023-12-20T04:37:00;98128.75;;;2.39;94.32
49949;BME280;35840;45.982;8.890;2023-12-20T04:39:28;98131.97;;;2.44;94.20
49949;BME280;35840;45.982;8.890;2023-12-20T04:41:55;98137.69;;;2.51;93.90
49949;BME280;35840;45.982;8.890;2023-12-20T04:44:22;98130.19;;;2.19;95.16
49949;BME280;35840;45.982;8.890;2023-12-20T04:46:49;98126.59;;;2.27;95.11
49949;BME280;35840;45.982;8.890;2023-12-20T04:49:16;98132.09;;;2.39;95.08
49949;BME280;35840;45.982;8.890;2023-12-20T04:51:43;98135.44;;;2.41;94.74
49949;BME280;35840;45.982;8.890;2023-12-20T04:54:09;98125.09;;;2.48;94.46
49949;BME280;35840;45.982;8.890;2023-12-20T04:56:37;98125.41;;;2.38;94.19
49949;BME280;35840;45.982;8.890;2023-12-20T04:59:04;98128.16;;;2.31;95.35
49949;BME280;35840;45.982;8.890;2023-12-20T05:01:31;98118.41;;;2.45;94.67
49949;BME280;35840;45.982;8.890;2023-12-20T05:03:58;98101.00;;;2.34;95.18
49949;BME280;35840;45.982;8.890;2023-12-20T05:06:24;98101.00;;;2.34;95.99
49949;BME280;35840;45.982;8.890;2023-12-20T05:08:51;98102.31;;;2.46;95.14
49949;BME280;35840;45.982;8.890;2023-12-20T05:11:18;98095.97;;;2.33;95.83
49949;BME280;35840;45.982;8.890;2023-12-20T05:13:45;98093.22;;;2.39;95.69
49949;BME280;35840;45.982;8.890;2023-12-20T05:16:16;98087.81;;;2.50;95.37
49949;BME280;35840;45.982;8.890;2023-12-20T05:18:45;98094.94;;;2.38;96.45
49949;BME280;35840;45.982;8.890;2023-12-20T05:21:12;98100.56;;;2.21;98.48
49949;BME280;35840;45.982;8.890;2023-12-20T05:23:39;98095.00;;;2.37;97.26
49949;BME280;35840;45.982;8.890;2023-12-20T05:26:06;98093.88;;;2.46;97.40
49949;BME280;35840;45.982;8.890;2023-12-20T05:28:33;98096.09;;;2.55;96.08
49949;BME280;35840;45.982;8.890;2023-12-20T05:31:00;98090.09;;;2.57;95.35
49949;BME280;35840;45.982;8.890;2023-12-20T05:33:27;98097.97;;;2.23;99.19
49949;BME280;35840;45.982;8.890;2023-12-20T05:35:54;98117.66;;;2.15;100.00
49949;BME280;35840;45.982;8.890;2023-12-20T05:38:20;98117.22;;;2.29;99.84
49949;BME280;35840;45.982;8.890;2023-12-20T05:40:47;98118.75;;;2.34;98.87
49949;BME280;35840;45.982;8.890;2023-12-20T05:43:14;98120.41;;;2.35;98.29
49949;BME280;35840;45.982;8.890;2023-12-20T05:45:41;98116.81;;;2.43;98.59
49949;BME280;35840;45.982;8.890;2023-12-20T05:48:09;98119.66;;;2.32;98.21
49949;BME280;35840;45.982;8.890;2023-12-20T05:50:36;98133.72;;;2.14;99.87
49949;BME280;35840;45.982;8.890;2023-12-20T05:53:03;98146.81;;;2.28;99.52
49949;BME280;35840;45.982;8.890;2023-12-20T05:55:30;98136.34;;;2.39;98.14
49949;BME280;35840;45.982;8.890;2023-12-20T05:57:57;98142.09;;;2.46;98.20
49949;BME280;35840;45.982;8.890;2023-12-20T06:00:24;98138.47;;;2.53;97.68
49949;BME280;35840;45.982;8.890;2023-12-20T06:02:51;98138.94;;;2.37;98.01
49949;BME280;35840;45.982;8.890;2023-12-20T06:05:18;98143.72;;;2.20;98.59
49949;BME280;35840;45.982;8.890;2023-12-20T06:07:45;98143.28;;;2.34;98.64
49949;BME280;35840;45.982;8.890;2023-12-20T06:10:15;98145.44;;;2.46;97.33
49949;BME280;35840;45.982;8.890;2023-12-20T06:12:43;98137.66;;;2.52;97.77
49949;BME280;35840;45.982;8.890;2023-12-20T06:15:10;98134.03;;;2.60;96.23
49949;BME280;35840;45.982;8.890;2023-12-20T06:17:37;98139.44;;;2.49;96.50
49949;BME280;35840;45.982;8.890;2023-12-20T06:20:04;98137.94;;;2.43;97.49
49949;BME280;35840;45.982;8.890;2023-12-20T06:22:35;98137.97;;;2.41;96.92
49949;BME280;35840;45.982;8.890;2023-12-20T06:25:02;98126.00;;;2.45;96.81
49949;BME280;35840;45.982;8.890;2023-12-20T06:27:29;98139.25;;;2.55;96.66
49949;BME280;35840;45.982;8.890;2023-12-20T06:29:58;98137.81;;;2.46;96.99
49949;BME280;35840;45.982;8.890;2023-12-20T06:32:26;98131.84;;;2.49;96.91
49949;BME280;35840;45.982;8.890;2023-12-20T06:34:52;98128.16;;;2.57;96.68
49949;BME280;35840;45.982;8.890;2023-12-20T06:37:19;98134.91;;;2.58;96.55
49949;BME280;35840;45.982;8.890;2023-12-20T06:39:46;98139.69;;;2.41;97.40
49949;BME280;35840;45.982;8.890;2023-12-20T06:42:13;98128.81;;;2.37;97.74
49949;BME280;35840;45.982;8.890;2023-12-20T06:44:40;98133.63;;;2.45;98.18
49949;BME280;35840;45.982;8.890;2023-12-20T06:47:07;98139.75;;;2.38;97.30
49949;BME280;35840;45.982;8.890;2023-12-20T06:49:34;98135.09;;;2.26;98.82
49949;BME280;35840;45.982;8.890;2023-12-20T06:52:01;98134.53;;;2.16;99.75
49949;BME280;35840;45.982;8.890;2023-12-20T06:54:28;98137.44;;;2.32;99.04
49949;BME280;35840;45.982;8.890;2023-12-20T06:56:55;98129.88;;;2.30;98.77
49949;BME280;35840;45.982;8.890;2023-12-20T06:59:23;98134.19;;;2.27;99.17
49949;BME280;35840;45.982;8.890;2023-12-20T07:01:49;98128.34;;;2.24;100.00
49949;BME280;35840;45.982;8.890;2023-12-20T07:04:17;98127.34;;;2.30;98.92
49949;BME280;35840;45.982;8.890;2023-12-20T07:06:48;98119.41;;;2.41;98.89
49949;BME280;35840;45.982;8.890;2023-12-20T07:09:18;98115.34;;;2.35;98.31
49949;BME280;35840;45.982;8.890;2023-12-20T07:11:44;98123.94;;;2.31;98.91
49949;BME280;35840;45.982;8.890;2023-12-20T07:14:11;98114.13;;;2.47;98.44
49949;BME280;35840;45.982;8.890;2023-12-20T07:16:38;98111.09;;;2.36;99.19
49949;BME280;35840;45.982;8.890;2023-12-20T07:19:05;98112.31;;;2.51;98.37
49949;BME280;35840;45.982;8.890;2023-12-20T07:21:32;98110.22;;;2.37;98.01
49949;BME280;35840;45.982;8.890;2023-12-20T07:23:59;98108.00;;;2.26;99.50
49949;BME280;35840;45.982;8.890;2023-12-20T07:26:25;98110.28;;;2.34;99.54
49949;BME280;35840;45.982;8.890;2023-12-20T07:28:52;98110.84;;;2.44;99.45
49949;BME280;35840;45.982;8.890;2023-12-20T07:31:19;98123.53;;;2.44;98.81
49949;BME280;35840;45.982;8.890;2023-12-20T07:33:46;98123.78;;;2.36;99.71
49949;BME280;35840;45.982;8.890;2023-12-20T07:36:13;98126.16;;;2.40;99.59
49949;BME280;35840;45.982;8.890;2023-12-20T07:38:40;98138.41;;;2.54;99.43
49949;BME280;35840;45.982;8.890;2023-12-20T07:41:09;98131.44;;;2.61;97.15
49949;BME280;35840;45.982;8.890;2023-12-20T07:43:36;98139.84;;;2.63;96.92
49949;BME280;35840;45.982;8.890;2023-12-20T07:46:07;98139.63;;;2.69;96.63
49949;BME280;35840;45.982;8.890;2023-12-20T07:48:35;98125.00;;;2.51;97.22
49949;BME280;35840;45.982;8.890;2023-12-20T07:51:03;98122.06;;;2.36;99.04
49949;BME280;35840;45.982;8.890;2023-12-20T07:53:30;98134.56;;;2.43;98.41
49949;BME280;35840;45.982;8.890;2023-12-20T07:55:56;98139.16;;;2.58;98.66
49949;BME280;35840;45.982;8.890;2023-12-20T07:58:23;98136.31;;;2.67;98.15
49949;BME280;35840;45.982;8.890;2023-12-20T08:01:06;98134.47;;;2.46;98.79
49949;BME280;35840;45.982;8.890;2023-12-20T08:03:33;98128.53;;;2.45;99.98
49949;BME280;35840;45.982;8.890;2023-12-20T08:06:00;98118.69;;;2.36;100.00
49949;BME280;35840;45.982;8.890;2023-12-20T08:08:27;98116.41;;;2.55;99.42
49949;BME280;35840;45.982;8.890;2023-12-20T08:10:54;98114.13;;;2.47;99.70
49949;BME280;35840;45.982;8.890;2023-12-20T08:13:21;98086.16;;;2.22;100.00
49949;BME280;35840;45.982;8.890;2023-12-20T08:15:53;98115.88;;;2.45;100.00
49949;BME280;35840;45.982;8.890;2023-12-20T08:18:20;98118.28;;;2.50;100.00
49949;BME280;35840;45.982;8.890;2023-12-20T08:20:47;98110.22;;;2.64;100.00
49949;BME280;35840;45.982;8.890;2023-12-20T08:23:15;98107.47;;;2.70;99.16
49949;BME280;35840;45.982;8.890;2023-12-20T08:25:42;98100.44;;;2.78;98.21
49949;BME280;35840;45.982;8.890;2023-12-20T08:28:09;98102.09;;;2.79;98.08
49949;BME280;35840;45.982;8.890;2023-12-20T08:30:35;98095.81;;;2.64;99.51
49949;BME280;35840;45.982;8.890;2023-12-20T08:33:03;98092.03;;;2.76;99.27
49949;BME280;35840;45.982;8.890;2023-12-20T08:35:30;98088.56;;;2.79;98.64
49949;BME280;35840;45.982;8.890;2023-12-20T08:37:56;98081.94;;;2.74;99.05
49949;BME280;35840;45.982;8.890;2023-12-20T08:40:23;98084.88;;;2.87;97.96
49949;BME280;35840;45.982;8.890;2023-12-20T08:42:50;98091.13;;;2.79;97.95
49949;BME280;35840;45.982;8.890;2023-12-20T08:45:17;98102.63;;;2.89;98.47
49949;BME280;35840;45.982;8.890;2023-12-20T08:47:44;98099.53;;;2.79;99.05
49949;BME280;35840;45.982;8.890;2023-12-20T08:50:12;98095.09;;;2.86;98.79
49949;BME280;35840;45.982;8.890;2023-12-20T08:52:39;98103.97;;;2.74;100.00
49949;BME280;35840;45.982;8.890;2023-12-20T08:55:07;98108.25;;;2.72;100.00
49949;BME280;35840;45.982;8.890;2023-12-20T08:57:34;98101.16;;;2.82;100.00
49949;BME280;35840;45.982;8.890;2023-12-20T09:00:01;98089.56;;;2.74;98.56
49949;BME280;35840;45.982;8.890;2023-12-20T09:02:28;98092.78;;;2.80;100.00
49949;BME280;35840;45.982;8.890;2023-12-20T09:04:55;98095.72;;;2.92;99.93
49949;BME280;35840;45.982;8.890;2023-12-20T09:07:23;98091.75;;;2.85;100.00
49949;BME280;35840;45.982;8.890;2023-12-20T09:09:51;98102.38;;;2.97;100.00
49949;BME280;35840;45.982;8.890;2023-12-20T09:12:19;98092.50;;;2.87;100.00
49949;BME280;35840;45.982;8.890;2023-12-20T09:14:47;98093.78;;;3.01;100.00
49949;BME280;35840;45.982;8.890;2023-12-20T09:17:15;98096.97;;;3.06;98.73
49949;BME280;35840;45.982;8.890;2023-12-20T09:19:43;98067.53;;;3.00;97.87
49949;BME280;35840;45.982;8.890;2023-12-20T09:22:13;98080.78;;;3.08;98.07
49949;BME280;35840;45.982;8.890;2023-12-20T09:24:39;98085.19;;;3.03;100.00
49949;BME280;35840;45.982;8.890;2023-12-20T09:27:06;98088.25;;;3.13;99.41
49949;BME280;35840;45.982;8.890;2023-12-20T09:29:33;98090.47;;;3.22;99.92
49949;BME280;35840;45.982;8.890;2023-12-20T09:32:00;98084.53;;;3.23;100.00
49949;BME280;35840;45.982;8.890;2023-12-20T09:34:27;98086.84;;;3.30;99.84
49949;BME280;35840;45.982;8.890;2023-12-20T09:36:54;98074.25;;;3.26;99.31
49949;BME280;35840;45.982;8.890;2023-12-20T09:39:21;98079.97;;;3.32;99.43
49949;BME280;35840;45.982;8.890;2023-12-20T09:42:07;98054.91;;;3.22;99.75
49949;BME280;35840;45.982;8.890;2023-12-20T09:44:34;98081.44;;;3.39;98.98
49949;BME280;35840;45.982;8.890;2023-12-20T09:47:03;98084.56;;;3.45;98.87
49949;BME280;35840;45.982;8.890;2023-12-20T09:49:30;98084.44;;;3.50;99.23
49949;BME280;35840;45.982;8.890;2023-12-20T09:52:00;98086.84;;;3.53;98.36
49949;BME280;35840;45.982;8.890;2023-12-20T09:54:28;98081.03;;;3.50;98.91
49949;BME280;35840;45.982;8.890;2023-12-20T09:56:56;98090.44;;;3.48;98.78
49949;BME280;35840;45.982;8.890;2023-12-20T09:59:22;98074.34;;;3.47;98.42
49949;BME280;35840;45.982;8.890;2023-12-20T10:01:50;98073.47;;;3.48;98.65
49949;BME280;35840;45.982;8.890;2023-12-20T10:04:21;98078.78;;;3.42;100.00
49949;BME280;35840;45.982;8.890;2023-12-20T10:06:56;98073.72;;;3.42;100.00
49949;BME280;35840;45.982;8.890;2023-12-20T10:09:24;98068.63;;;3.42;100.00
49949;BME280;35840;45.982;8.890;2023-12-20T10:11:54;98067.69;;;3.44;100.00
49949;BME280;35840;45.982;8.890;2023-12-20T10:14:21;98070.19;;;3.46;99.38
49949;BME280;35840;45.982;8.890;2023-12-20T10:16:50;98058.00;;;3.54;99.94
49949;BME280;35840;45.982;8.890;2023-12-20T10:19:17;98056.25;;;3.56;100.00
49949;BME280;35840;45.982;8.890;2023-12-20T10:21:45;98055.06;;;3.65;99.80
49949;BME280;35840;45.982;8.890;2023-12-20T10:24:17;98054.72;;;3.74;99.51
49949;BME280;35840;45.982;8.890;2023-12-20T10:26:44;98048.22;;;3.89;97.76
49949;BME280;35840;45.982;8.890;2023-12-20T10:29:11;98045.28;;;4.00;98.16
49949;BME280;35840;45.982;8.890;2023-12-20T10:31:38;98033.66;;;4.15;96.20
49949;BME280;35840;45.982;8.890;2023-12-20T10:34:09;98024.06;;;4.22;91.59
49949;BME280;35840;45.982;8.890;2023-12-20T10:36:36;98022.03;;;4.30;92.16
49949;BME280;35840;45.982;8.890;2023-12-20T10:39:05;98024.13;;;4.41;89.77
49949;BME280;35840;45.982;8.890;2023-12-20T10:41:35;98016.97;;;4.51;86.08
49949;BME280;35840;45.982;8.890;2023-12-20T10:44:08;97998.06;;;4.56;86.80
49949;BME280;35840;45.982;8.890;2023-12-20T10:46:37;97989.97;;;4.67;88.91
49949;BME280;35840;45.982;8.890;2023-12-20T10:49:06;97989.19;;;4.86;89.38
49949;BME280;35840;45.982;8.890;2023-12-20T10:51:35;97995.22;;;5.04;88.54
49949;BME280;35840;45.982;8.890;2023-12-20T10:54:04;97985.16;;;5.00;88.49
49949;BME280;35840;45.982;8.890;2023-12-20T10:56:32;97980.06;;;5.20;85.01
49949;BME280;35840;45.982;8.890;2023-12-20T10:59:02;97981.31;;;5.11;85.39
49949;BME280;35840;45.982;8.890;2023-12-20T11:01:33;97973.38;;;5.17;86.27
49949;BME280;35840;45.982;8.890;2023-12-20T11:04:06;97967.84;;;5.07;87.26
49949;BME280;35840;45.982;8.890;2023-12-20T11:06:47;97955.53;;;4.98;87.14
49949;BME280;35840;45.982;8.890;2023-12-20T11:09:35;97952.56;;;4.88;88.21
49949;BME280;35840;45.982;8.890;2023-12-20T11:12:09;97967.34;;;4.80;88.31
49949;BME280;35840;45.982;8.890;2023-12-20T11:14:46;97958.06;;;4.79;88.46
49949;BME280;35840;45.982;8.890;2023-12-20T11:17:14;97951.06;;;4.84;89.27
49949;BME280;35840;45.982;8.890;2023-12-20T11:20:03;97956.34;;;4.98;88.93
49949;BME280;35840;45.982;8.890;2023-12-20T11:22:31;97958.75;;;5.02;89.08
49949;BME280;35840;45.982;8.890;2023-12-20T11:25:06;97951.06;;;5.03;89.43
49949;BME280;35840;45.982;8.890;2023-12-20T11:27:36;97942.19;;;5.12;88.32
49949;BME280;35840;45.982;8.890;2023-12-20T11:30:04;97945.81;;;5.25;87.66
49949;BME280;35840;45.982;8.890;2023-12-20T11:32:35;97949.25;;;5.43;86.18
49949;BME280;35840;45.982;8.890;2023-12-20T11:37:36;97951.78;;;5.99;83.87
49949;BME280;35840;45.982;8.890;2023-12-20T11:40:08;97950.66;;;6.05;82.93
49949;BME280;35840;45.982;8.890;2023-12-20T11:42:42;97946.38;;;6.23;81.41
49949;BME280;35840;45.982;8.890;2023-12-20T11:45:18;97940.44;;;6.40;81.24
49949;BME280;35840;45.982;8.890;2023-12-20T11:47:47;97939.88;;;6.50;80.99
49949;BME280;35840;45.982;8.890;2023-12-20T11:50:17;97936.56;;;6.66;79.89
49949;BME280;35840;45.982;8.890;2023-12-20T11:52:45;97929.16;;;6.77;77.61
49949;BME280;35840;45.982;8.890;2023-12-20T11:55:12;97929.34;;;6.90;77.16
49949;BME280;35840;45.982;8.890;2023-12-20T11:57:39;97923.16;;;6.94;77.02
49949;BME280;35840;45.982;8.890;2023-12-20T12:00:06;97909.66;;;6.92;76.45
49949;BME280;35840;45.982;8.890;2023-12-20T12:02:39;97914.09;;;7.04;75.50
49949;BME280;35840;45.982;8.890;2023-12-20T12:05:07;97907.59;;;7.15;73.95
49949;BME280;35840;45.982;8.890;2023-12-20T12:07:35;97901.41;;;7.03;73.61
49949;BME280;35840;45.982;8.890;2023-12-20T12:10:02;97901.00;;;6.95;75.06
49949;BME280;35840;45.982;8.890;2023-12-20T12:12:32;97888.53;;;6.88;75.51
49949;BME280;35840;45.982;8.890;2023-12-20T12:14:59;97889.59;;;6.84;75.62
49949;BME280;35840;45.982;8.890;2023-12-20T12:17:26;97890.59;;;6.82;76.55
49949;BME280;35840;45.982;8.890;2023-12-20T12:20:05;97886.16;;;6.85;78.15
49949;BME280;35840;45.982;8.890;2023-12-20T12:22:33;97879.41;;;7.00;79.61
49949;BME280;35840;45.982;8.890;2023-12-20T12:25:09;97880.88;;;7.20;78.54
49949;BME280;35840;45.982;8.890;2023-12-20T12:27:41;97877.03;;;7.13;77.65
49949;BME280;35840;45.982;8.890;2023-12-20T12:30:09;97863.66;;;7.08;77.75
49949;BME280;35840;45.982;8.890;2023-12-20T12:32:36;97867.75;;;7.27;78.58
49949;BME280;35840;45.982;8.890;2023-12-20T12:35:05;97864.72;;;7.20;78.45
49949;BME280;35840;45.982;8.890;2023-12-20T12:37:40;97860.22;;;7.39;77.35
49949;BME280;35840;45.982;8.890;2023-12-20T12:40:11;97858.69;;;7.67;76.40
49949;BME280;35840;45.982;8.890;2023-12-20T12:42:40;97859.19;;;7.74;76.05
49949;BME280;35840;45.982;8.890;2023-12-20T12:45:08;97854.50;;;7.81;76.01
49949;BME280;35840;45.982;8.890;2023-12-20T12:47:35;97844.47;;;7.78;75.84
49949;BME280;35840;45.982;8.890;2023-12-20T12:50:02;97831.09;;;7.72;75.58
49949;BME280;35840;45.982;8.890;2023-12-20T12:52:30;97832.34;;;7.96;73.94
49949;BME280;35840;45.982;8.890;2023-12-20T12:54:57;97830.22;;;7.88;73.30
49949;BME280;35840;45.982;8.890;2023-12-20T12:57:24;97830.66;;;7.80;73.41
49949;BME280;35840;45.982;8.890;2023-12-20T12:59:51;97823.91;;;7.79;72.69
49949;BME280;35840;45.982;8.890;2023-12-20T13:02:18;97819.06;;;7.74;72.85
49949;BME280;35840;45.982;8.890;2023-12-20T13:04:45;97816.91;;;7.67;73.80
49949;BME280;35840;45.982;8.890;2023-12-20T13:07:13;97815.94;;;7.69;75.14
49949;BME280;35840;45.982;8.890;2023-12-20T13:09:40;97815.22;;;7.82;75.32
49949;BME280;35840;45.982;8.890;2023-12-20T13:12:07;97816.34;;;7.92;74.60
49949;BME280;35840;45.982;8.890;2023-12-20T13:14:35;97809.59;;;8.05;73.99
49949;BME280;35840;45.982;8.890;2023-12-20T13:17:04;97799.88;;;8.10;74.38
49949;BME280;35840;45.982;8.890;2023-12-20T13:19:31;97808.75;;;8.19;71.01